sensor_id;sensor_type;location;lat;lon;timestamp;P1;durP1;ratioP1;P2;durP2;ratioP2
36585;SDS011;22591;48.314;11.562;2023-08-06T00:01:39;34.70;;;31.90;;
36585;SDS011;22591;48.314;11.562;2023-08-06T00:04:05;32.75;;;30.35;;
36585;SDS011;22591;48.314;11.562;2023-08-06T00:06:30;26.13;;;24.25;;
36585;SDS011;22591;48.314;11.562;2023-08-06T00:08:55;25.48;;;23.45;;
36585;SDS011;22591;48.314;11.562;2023-08-06T00:11:21;25.30;;;22.92;;
36585;SDS011;22591;48.314;11.562;2023-08-06T00:13:47;21.63;;;19.88;;
36585;SDS011;22591;48.314;11.562;2023-08-06T00:16:12;21.40;;;19.48;;
36585;SDS011;22591;48.314;11.562;2023-08-06T00:18:38;18.02;;;16.17;;
36585;SDS011;22591;48.314;11.562;2023-08-06T00:21:04;18.02;;;16.50;;
36585;SDS011;22591;48.314;11.562;2023-08-06T00:23:30;19.45;;;17.73;;
36585;SDS011;22591;48.314;11.562;2023-08-06T00:25:55;17.42;;;15.82;;
36585;SDS011;22591;48.314;11.562;2023-08-06T00:28:21;17.10;;;15.70;;
36585;SDS011;22591;48.314;11.562;2023-08-06T00:30:51;19.38;;;17.63;;
36585;SDS011;22591;48.314;11.562;2023-08-06T00:33:18;19.13;;;17.40;;
36585;SDS011;22591;48.314;11.562;2023-08-06T00:35:43;19.50;;;17.60;;
36585;SDS011;22591;48.314;11.562;2023-08-06T00:38:09;17.85;;;16.15;;
36585;SDS011;22591;48.314;11.562;2023-08-06T00:40:34;21.15;;;19.15;;
36585;SDS011;22591;48.314;11.562;2023-08-06T00:43:00;19.25;;;17.45;;
36585;SDS011;22591;48.314;11.562;2023-08-06T00:45:25;19.77;;;18.05;;
36585;SDS011;22591;48.314;11.562;2023-08-06T00:47:52;17.85;;;16.10;;
36585;SDS011;22591;48.314;11.562;2023-08-06T00:50:18;20.30;;;18.40;;
36585;SDS011;22591;48.314;11.562;2023-08-06T00:52:46;17.70;;;16.05;;
36585;SDS011;22591;48.314;11.562;2023-08-06T00:55:12;19.95;;;17.88;;
36585;SDS011;22591;48.314;11.562;2023-08-06T00:57:37;19.60;;;17.80;;
36585;SDS011;22591;48.314;11.562;2023-08-06T01:00:03;16.45;;;14.77;;
36585;SDS011;22591;48.314;11.562;2023-08-06T01:02:29;14.23;;;12.95;;
36585;SDS011;22591;48.314;11.562;2023-08-06T01:04:54;15.98;;;14.57;;
36585;SDS011;22591;48.314;11.562;2023-08-06T01:07:31;18.30;;;16.70;;
36585;SDS011;22591;48.314;11.562;2023-08-06T01:12:52;17.63;;;16.02;;
36585;SDS011;22591;48.314;11.562;2023-08-06T01:15:28;14.48;;;13.13;;
36585;SDS011;22591;48.314;11.562;2023-08-06T01:17:57;15.68;;;14.27;;
36585;SDS011;22591;48.314;11.562;2023-08-06T01:20:29;16.92;;;13.10;;
36585;SDS011;22591;48.314;11.562;2023-08-06T01:22:56;13.50;;;11.75;;
36585;SDS011;22591;48.314;11.562;2023-08-06T01:25:21;13.95;;;12.57;;
36585;SDS011;22591;48.314;11.562;2023-08-06T01:27:57;12.70;;;11.60;;
36585;SDS011;22591;48.314;11.562;2023-08-06T01:30:43;10.18;;;9.38;;
36585;SDS011;22591;48.314;11.562;2023-08-06T01:33:12;11.23;;;10.20;;
36585;SDS011;22591;48.314;11.562;2023-08-06T01:35:43;12.00;;;9.88;;
36585;SDS011;22591;48.314;11.562;2023-08-06T01:38:10;10.80;;;9.80;;
36585;SDS011;22591;48.314;11.562;2023-08-06T01:40:36;10.90;;;9.88;;
36585;SDS011;22591;48.314;11.562;2023-08-06T01:43:01;9.57;;;8.63;;
36585;SDS011;22591;48.314;11.562;2023-08-06T01:45:27;10.25;;;9.27;;
36585;SDS011;22591;48.314;11.562;2023-08-06T01:47:53;11.00;;;10.10;;
36585;SDS011;22591;48.314;11.562;2023-08-06T01:50:18;11.35;;;9.75;;
36585;SDS011;22591;48.314;11.562;2023-08-06T01:52:44;12.73;;;10.52;;
36585;SDS011;22591;48.314;11.562;2023-08-06T01:55:09;11.30;;;10.25;;
36585;SDS011;22591;48.314;11.562;2023-08-06T01:57:35;10.52;;;9.48;;
36585;SDS011;22591;48.314;11.562;2023-08-06T02:00:00;11.65;;;10.07;;
36585;SDS011;22591;48.314;11.562;2023-08-06T02:02:26;11.25;;;10.30;;
36585;SDS011;22591;48.314;11.562;2023-08-06T02:04:51;10.75;;;9.65;;
36585;SDS011;22591;48.314;11.562;2023-08-06T02:07:17;10.70;;;9.77;;
36585;SDS011;22591;48.314;11.562;2023-08-06T02:09:42;11.45;;;10.35;;
36585;SDS011;22591;48.314;11.562;2023-08-06T02:12:08;11.25;;;10.25;;
36585;SDS011;22591;48.314;11.562;2023-08-06T02:14:34;12.90;;;11.60;;
36585;SDS011;22591;48.314;11.562;2023-08-06T02:17:00;14.25;;;10.95;;
36585;SDS011;22591;48.314;11.562;2023-08-06T02:19:25;11.25;;;10.18;;
36585;SDS011;22591;48.314;11.562;2023-08-06T02:21:51;12.65;;;11.35;;
36585;SDS011;22591;48.314;11.562;2023-08-06T02:24:16;12.75;;;9.93;;
36585;SDS011;22591;48.314;11.562;2023-08-06T02:26:42;11.35;;;10.10;;
36585;SDS011;22591;48.314;11.562;2023-08-06T02:29:07;11.15;;;10.00;;
36585;SDS011;22591;48.314;11.562;2023-08-06T02:31:33;11.07;;;9.52;;
36585;SDS011;22591;48.314;11.562;2023-08-06T02:33:58;17.42;;;10.50;;
36585;SDS011;22591;48.314;11.562;2023-08-06T02:36:24;11.05;;;9.95;;
36585;SDS011;22591;48.314;11.562;2023-08-06T02:38:49;11.93;;;10.70;;
36585;SDS011;22591;48.314;11.562;2023-08-06T02:41:15;11.10;;;10.02;;
36585;SDS011;22591;48.314;11.562;2023-08-06T02:43:41;11.50;;;10.27;;
36585;SDS011;22591;48.314;11.562;2023-08-06T02:46:06;11.85;;;10.77;;
36585;SDS011;22591;48.314;11.562;2023-08-06T02:48:32;14.57;;;11.82;;
36585;SDS011;22591;48.314;11.562;2023-08-06T02:50:57;12.23;;;10.80;;
36585;SDS011;22591;48.314;11.562;2023-08-06T02:53:24;11.63;;;10.65;;
36585;SDS011;22591;48.314;11.562;2023-08-06T02:55:50;12.27;;;10.77;;
36585;SDS011;22591;48.314;11.562;2023-08-06T02:58:15;12.10;;;10.90;;
36585;SDS011;22591;48.314;11.562;2023-08-06T03:00:42;11.15;;;10.13;;
36585;SDS011;22591;48.314;11.562;2023-08-06T03:03:08;11.50;;;10.30;;
36585;SDS011;22591;48.314;11.562;2023-08-06T03:05:34;11.75;;;10.63;;
36585;SDS011;22591;48.314;11.562;2023-08-06T03:08:00;10.80;;;9.85;;
36585;SDS011;22591;48.314;11.562;2023-08-06T03:10:25;10.18;;;9.25;;
36585;SDS011;22591;48.314;11.562;2023-08-06T03:12:51;10.00;;;9.00;;
36585;SDS011;22591;48.314;11.562;2023-08-06T03:15:17;10.88;;;9.63;;
36585;SDS011;22591;48.314;11.562;2023-08-06T03:17:42;10.48;;;9.48;;
36585;SDS011;22591;48.314;11.562;2023-08-06T03:20:09;9.48;;;8.50;;
36585;SDS011;22591;48.314;11.562;2023-08-06T03:22:35;8.85;;;8.05;;
36585;SDS011;22591;48.314;11.562;2023-08-06T03:25:00;9.77;;;9.02;;
36585;SDS011;22591;48.314;11.562;2023-08-06T03:27:26;9.52;;;8.82;;
36585;SDS011;22591;48.314;11.562;2023-08-06T03:29:51;8.52;;;7.75;;
36585;SDS011;22591;48.314;11.562;2023-08-06T03:32:17;11.85;;;8.00;;
36585;SDS011;22591;48.314;11.562;2023-08-06T03:34:43;11.07;;;8.15;;
36585;SDS011;22591;48.314;11.562;2023-08-06T03:37:08;8.82;;;8.13;;
36585;SDS011;22591;48.314;11.562;2023-08-06T03:39:34;9.52;;;8.57;;
36585;SDS011;22591;48.314;11.562;2023-08-06T03:41:59;9.25;;;8.35;;
36585;SDS011;22591;48.314;11.562;2023-08-06T03:44:25;9.13;;;8.30;;
36585;SDS011;22591;48.314;11.562;2023-08-06T03:46:52;8.18;;;7.53;;
36585;SDS011;22591;48.314;11.562;2023-08-06T03:49:17;7.75;;;7.15;;
36585;SDS011;22591;48.314;11.562;2023-08-06T03:51:43;9.77;;;8.15;;
36585;SDS011;22591;48.314;11.562;2023-08-06T03:54:08;8.27;;;7.65;;
36585;SDS011;22591;48.314;11.562;2023-08-06T03:56:34;8.27;;;7.40;;
36585;SDS011;22591;48.314;11.562;2023-08-06T03:58:59;7.43;;;6.90;;
36585;SDS011;22591;48.314;11.562;2023-08-06T04:01:25;7.28;;;6.78;;
36585;SDS011;22591;48.314;11.562;2023-08-06T04:03:50;8.73;;;6.88;;
36585;SDS011;22591;48.314;11.562;2023-08-06T04:06:16;8.23;;;7.05;;
36585;SDS011;22591;48.314;11.562;2023-08-06T04:08:41;6.78;;;5.93;;
36585;SDS011;22591;48.314;11.562;2023-08-06T04:11:07;7.65;;;6.88;;
36585;SDS011;22591;48.314;11.562;2023-08-06T04:13:33;6.68;;;6.22;;
36585;SDS011;22591;48.314;11.562;2023-08-06T04:16:02;6.25;;;5.85;;
36585;SDS011;22591;48.314;11.562;2023-08-06T04:18:27;6.78;;;6.07;;
36585;SDS011;22591;48.314;11.562;2023-08-06T04:20:53;8.38;;;5.63;;
36585;SDS011;22591;48.314;11.562;2023-08-06T04:23:20;6.93;;;6.32;;
36585;SDS011;22591;48.314;11.562;2023-08-06T04:25:46;6.88;;;6.30;;
36585;SDS011;22591;48.314;11.562;2023-08-06T04:28:11;6.18;;;5.68;;
36585;SDS011;22591;48.314;11.562;2023-08-06T04:30:37;6.25;;;5.80;;
36585;SDS011;22591;48.314;11.562;2023-08-06T04:33:03;5.95;;;5.45;;
36585;SDS011;22591;48.314;11.562;2023-08-06T04:35:29;8.68;;;5.85;;
36585;SDS011;22591;48.314;11.562;2023-08-06T04:37:54;5.30;;;5.00;;
36585;SDS011;22591;48.314;11.562;2023-08-06T04:40:20;7.00;;;5.35;;
36585;SDS011;22591;48.314;11.562;2023-08-06T04:42:46;6.72;;;5.07;;
36585;SDS011;22591;48.314;11.562;2023-08-06T04:45:12;6.65;;;4.55;;
36585;SDS011;22591;48.314;11.562;2023-08-06T04:47:38;5.82;;;4.90;;
36585;SDS011;22591;48.314;11.562;2023-08-06T04:50:04;7.57;;;4.50;;
36585;SDS011;22591;48.314;11.562;2023-08-06T04:52:30;5.20;;;4.53;;
36585;SDS011;22591;48.314;11.562;2023-08-06T04:54:57;3.88;;;3.67;;
36585;SDS011;22591;48.314;11.562;2023-08-06T04:57:23;4.20;;;3.65;;
36585;SDS011;22591;48.314;11.562;2023-08-06T04:59:49;4.55;;;3.55;;
36585;SDS011;22591;48.314;11.562;2023-08-06T05:02:15;3.53;;;3.22;;
36585;SDS011;22591;48.314;11.562;2023-08-06T05:04:41;3.97;;;3.67;;
36585;SDS011;22591;48.314;11.562;2023-08-06T05:07:06;3.08;;;2.88;;
36585;SDS011;22591;48.314;11.562;2023-08-06T05:09:32;3.60;;;3.30;;
36585;SDS011;22591;48.314;11.562;2023-08-06T05:12:00;3.05;;;2.85;;
36585;SDS011;22591;48.314;11.562;2023-08-06T05:14:27;3.33;;;3.13;;
36585;SDS011;22591;48.314;11.562;2023-08-06T05:16:53;3.35;;;3.13;;
36585;SDS011;22591;48.314;11.562;2023-08-06T05:19:18;4.43;;;3.30;;
36585;SDS011;22591;48.314;11.562;2023-08-06T05:21:44;3.20;;;3.00;;
36585;SDS011;22591;48.314;11.562;2023-08-06T05:24:10;3.65;;;3.40;;
36585;SDS011;22591;48.314;11.562;2023-08-06T05:26:35;3.70;;;3.40;;
36585;SDS011;22591;48.314;11.562;2023-08-06T05:29:01;4.03;;;3.72;;
36585;SDS011;22591;48.314;11.562;2023-08-06T05:31:26;3.97;;;3.63;;
36585;SDS011;22591;48.314;11.562;2023-08-06T05:33:53;3.53;;;2.85;;
36585;SDS011;22591;48.314;11.562;2023-08-06T05:36:19;3.55;;;3.25;;
36585;SDS011;22591;48.314;11.562;2023-08-06T05:38:46;3.97;;;3.40;;
36585;SDS011;22591;48.314;11.562;2023-08-06T05:41:11;3.78;;;3.47;;
36585;SDS011;22591;48.314;11.562;2023-08-06T05:43:37;4.00;;;3.65;;
36585;SDS011;22591;48.314;11.562;2023-08-06T05:46:02;3.72;;;3.42;;
36585;SDS011;22591;48.314;11.562;2023-08-06T05:48:29;3.53;;;2.90;;
36585;SDS011;22591;48.314;11.562;2023-08-06T05:50:54;3.95;;;3.70;;
36585;SDS011;22591;48.314;11.562;2023-08-06T05:53:20;4.75;;;3.67;;
36585;SDS011;22591;48.314;11.562;2023-08-06T05:55:45;4.57;;;3.30;;
36585;SDS011;22591;48.314;11.562;2023-08-06T05:58:12;4.38;;;4.03;;
36585;SDS011;22591;48.314;11.562;2023-08-06T06:00:37;4.00;;;3.70;;
36585;SDS011;22591;48.314;11.562;2023-08-06T06:03:03;3.67;;;3.38;;
36585;SDS011;22591;48.314;11.562;2023-08-06T06:05:28;3.63;;;3.10;;
36585;SDS011;22591;48.314;11.562;2023-08-06T06:07:54;4.45;;;3.85;;
36585;SDS011;22591;48.314;11.562;2023-08-06T06:10:19;3.65;;;3.45;;
36585;SDS011;22591;48.314;11.562;2023-08-06T06:12:45;3.33;;;3.03;;
36585;SDS011;22591;48.314;11.562;2023-08-06T06:15:10;3.38;;;3.08;;
36585;SDS011;22591;48.314;11.562;2023-08-06T06:17:36;3.22;;;3.03;;
36585;SDS011;22591;48.314;11.562;2023-08-06T06:20:01;3.15;;;2.95;;
36585;SDS011;22591;48.314;11.562;2023-08-06T06:22:29;2.83;;;2.63;;
36585;SDS011;22591;48.314;11.562;2023-08-06T06:24:55;3.42;;;2.75;;
36585;SDS011;22591;48.314;11.562;2023-08-06T06:27:21;2.90;;;2.22;;
36585;SDS011;22591;48.314;11.562;2023-08-06T06:29:47;2.47;;;2.38;;
36585;SDS011;22591;48.314;11.562;2023-08-06T06:32:12;2.53;;;2.42;;
36585;SDS011;22591;48.314;11.562;2023-08-06T06:34:38;3.22;;;2.97;;
36585;SDS011;22591;48.314;11.562;2023-08-06T06:37:03;2.33;;;2.15;;
36585;SDS011;22591;48.314;11.562;2023-08-06T06:39:29;2.95;;;2.20;;
36585;SDS011;22591;48.314;11.562;2023-08-06T06:41:55;2.45;;;2.33;;
36585;SDS011;22591;48.314;11.562;2023-08-06T06:44:20;2.80;;;2.47;;
36585;SDS011;22591;48.314;11.562;2023-08-06T06:46:46;2.55;;;2.42;;
36585;SDS011;22591;48.314;11.562;2023-08-06T06:49:12;3.25;;;2.95;;
36585;SDS011;22591;48.314;11.562;2023-08-06T06:51:37;3.20;;;2.65;;
36585;SDS011;22591;48.314;11.562;2023-08-06T06:54:03;2.90;;;2.30;;
36585;SDS011;22591;48.314;11.562;2023-08-06T06:56:28;3.08;;;2.50;;
36585;SDS011;22591;48.314;11.562;2023-08-06T06:58:54;2.35;;;2.15;;
36585;SDS011;22591;48.314;11.562;2023-08-06T07:01:20;2.22;;;2.13;;
36585;SDS011;22591;48.314;11.562;2023-08-06T07:03:45;2.63;;;1.98;;
36585;SDS011;22591;48.314;11.562;2023-08-06T07:06:11;2.65;;;2.45;;
36585;SDS011;22591;48.314;11.562;2023-08-06T07:08:37;2.65;;;2.28;;
36585;SDS011;22591;48.314;11.562;2023-08-06T07:11:03;4.30;;;1.83;;
36585;SDS011;22591;48.314;11.562;2023-08-06T07:13:31;2.00;;;1.80;;
36585;SDS011;22591;48.314;11.562;2023-08-06T07:15:57;2.35;;;1.45;;
36585;SDS011;22591;48.314;11.562;2023-08-06T07:18:23;1.85;;;1.40;;
36585;SDS011;22591;48.314;11.562;2023-08-06T07:20:49;1.85;;;1.55;;
36585;SDS011;22591;48.314;11.562;2023-08-06T07:23:16;1.05;;;1.05;;
36585;SDS011;22591;48.314;11.562;2023-08-06T07:25:41;1.15;;;1.15;;
36585;SDS011;22591;48.314;11.562;2023-08-06T07:28:07;1.27;;;1.10;;
36585;SDS011;22591;48.314;11.562;2023-08-06T07:30:33;1.40;;;1.30;;
36585;SDS011;22591;48.314;11.562;2023-08-06T07:32:58;1.58;;;1.48;;
36585;SDS011;22591;48.314;11.562;2023-08-06T07:35:24;1.02;;;1.02;;
36585;SDS011;22591;48.314;11.562;2023-08-06T07:37:49;0.98;;;0.98;;
36585;SDS011;22591;48.314;11.562;2023-08-06T07:40:15;1.73;;;1.13;;
36585;SDS011;22591;48.314;11.562;2023-08-06T07:42:41;0.95;;;0.95;;
36585;SDS011;22591;48.314;11.562;2023-08-06T07:45:07;1.42;;;0.98;;
36585;SDS011;22591;48.314;11.562;2023-08-06T07:47:33;1.15;;;1.05;;
36585;SDS011;22591;48.314;11.562;2023-08-06T07:49:58;1.02;;;0.90;;
36585;SDS011;22591;48.314;11.562;2023-08-06T07:52:24;1.20;;;0.90;;
36585;SDS011;22591;48.314;11.562;2023-08-06T07:54:50;1.63;;;0.80;;
36585;SDS011;22591;48.314;11.562;2023-08-06T07:57:15;0.80;;;0.80;;
36585;SDS011;22591;48.314;11.562;2023-08-06T07:59:41;0.90;;;0.90;;
36585;SDS011;22591;48.314;11.562;2023-08-06T08:02:07;0.95;;;0.95;;
36585;SDS011;22591;48.314;11.562;2023-08-06T08:04:32;2.33;;;0.95;;
36585;SDS011;22591;48.314;11.562;2023-08-06T08:06:58;1.15;;;0.80;;
36585;SDS011;22591;48.314;11.562;2023-08-06T08:09:23;1.45;;;1.00;;
36585;SDS011;22591;48.314;11.562;2023-08-06T08:11:49;2.40;;;1.00;;
36585;SDS011;22591;48.314;11.562;2023-08-06T08:14:15;1.20;;;1.08;;
36585;SDS011;22591;48.314;11.562;2023-08-06T08:16:40;1.65;;;0.75;;
36585;SDS011;22591;48.314;11.562;2023-08-06T08:19:06;2.78;;;0.85;;
36585;SDS011;22591;48.314;11.562;2023-08-06T08:21:32;0.85;;;0.65;;
36585;SDS011;22591;48.314;11.562;2023-08-06T08:23:59;1.15;;;0.80;;
36585;SDS011;22591;48.314;11.562;2023-08-06T08:26:25;2.75;;;1.20;;
36585;SDS011;22591;48.314;11.562;2023-08-06T08:28:52;0.90;;;0.90;;
36585;SDS011;22591;48.314;11.562;2023-08-06T08:31:18;0.70;;;0.70;;
36585;SDS011;22591;48.314;11.562;2023-08-06T08:33:44;0.80;;;0.80;;
36585;SDS011;22591;48.314;11.562;2023-08-06T08:36:09;1.02;;;0.90;;
36585;SDS011;22591;48.314;11.562;2023-08-06T08:38:35;1.65;;;0.90;;
36585;SDS011;22591;48.314;11.562;2023-08-06T08:41:01;1.60;;;0.77;;
36585;SDS011;22591;48.314;11.562;2023-08-06T08:43:27;1.13;;;0.90;;
36585;SDS011;22591;48.314;11.562;2023-08-06T08:45:54;1.67;;;0.80;;
36585;SDS011;22591;48.314;11.562;2023-08-06T08:48:21;0.90;;;0.90;;
36585;SDS011;22591;48.314;11.562;2023-08-06T08:50:48;0.80;;;0.80;;
36585;SDS011;22591;48.314;11.562;2023-08-06T08:53:15;2.15;;;0.88;;
36585;SDS011;22591;48.314;11.562;2023-08-06T08:55:42;2.75;;;0.77;;
36585;SDS011;22591;48.314;11.562;2023-08-06T08:58:09;0.60;;;0.60;;
36585;SDS011;22591;48.314;11.562;2023-08-06T09:00:35;1.02;;;0.90;;
36585;SDS011;22591;48.314;11.562;2023-08-06T09:03:01;0.73;;;0.73;;
36585;SDS011;22591;48.314;11.562;2023-08-06T09:05:29;0.82;;;0.82;;
36585;SDS011;22591;48.314;11.562;2023-08-06T09:07:56;0.70;;;0.60;;
36585;SDS011;22591;48.314;11.562;2023-08-06T09:10:28;1.35;;;0.63;;
36585;SDS011;22591;48.314;11.562;2023-08-06T09:12:53;0.65;;;0.65;;
36585;SDS011;22591;48.314;11.562;2023-08-06T09:15:23;0.40;;;0.40;;
36585;SDS011;22591;48.314;11.562;2023-08-06T09:17:50;0.90;;;0.60;;
36585;SDS011;22591;48.314;11.562;2023-08-06T09:20:17;0.60;;;0.60;;
36585;SDS011;22591;48.314;11.562;2023-08-06T09:22:42;2.17;;;0.50;;
36585;SDS011;22591;48.314;11.562;2023-08-06T09:25:10;0.75;;;0.75;;
36585;SDS011;22591;48.314;11.562;2023-08-06T09:27:38;0.50;;;0.50;;
36585;SDS011;22591;48.314;11.562;2023-08-06T09:30:05;0.50;;;0.50;;
36585;SDS011;22591;48.314;11.562;2023-08-06T09:32:47;1.10;;;0.55;;
36585;SDS011;22591;48.314;11.562;2023-08-06T09:35:16;2.85;;;0.63;;
36585;SDS011;22591;48.314;11.562;2023-08-06T09:37:43;1.73;;;0.50;;
36585;SDS011;22591;48.314;11.562;2023-08-06T09:40:28;0.82;;;0.77;;
36585;SDS011;22591;48.314;11.562;2023-08-06T09:42:56;1.17;;;0.85;;
36585;SDS011;22591;48.314;11.562;2023-08-06T09:45:22;1.65;;;0.52;;
36585;SDS011;22591;48.314;11.562;2023-08-06T09:47:55;0.53;;;0.40;;
36585;SDS011;22591;48.314;11.562;2023-08-06T09:50:22;3.65;;;0.50;;
36585;SDS011;22591;48.314;11.562;2023-08-06T09:52:48;0.60;;;0.45;;
36585;SDS011;22591;48.314;11.562;2023-08-06T09:55:15;0.60;;;0.60;;
36585;SDS011;22591;48.314;11.562;2023-08-06T09:57:41;0.47;;;0.43;;
36585;SDS011;22591;48.314;11.562;2023-08-06T10:00:08;0.40;;;0.40;;
36585;SDS011;22591;48.314;11.562;2023-08-06T10:02:35;1.42;;;0.55;;
36585;SDS011;22591;48.314;11.562;2023-08-06T10:05:02;0.50;;;0.30;;
36585;SDS011;22591;48.314;11.562;2023-08-06T10:07:29;0.43;;;0.38;;
36585;SDS011;22591;48.314;11.562;2023-08-06T10:09:55;1.88;;;0.43;;
36585;SDS011;22591;48.314;11.562;2023-08-06T10:12:21;2.22;;;0.50;;
36585;SDS011;22591;48.314;11.562;2023-08-06T10:14:49;1.45;;;0.47;;
36585;SDS011;22591;48.314;11.562;2023-08-06T10:17:18;2.72;;;0.38;;
36585;SDS011;22591;48.314;11.562;2023-08-06T10:19:45;0.75;;;0.40;;
36585;SDS011;22591;48.314;11.562;2023-08-06T10:22:13;0.40;;;0.40;;
36585;SDS011;22591;48.314;11.562;2023-08-06T10:27:40;0.77;;;0.45;;
36585;SDS011;22591;48.314;11.562;2023-08-06T10:30:30;1.15;;;0.30;;
36585;SDS011;22591;48.314;11.562;2023-08-06T10:32:57;1.73;;;0.40;;
36585;SDS011;22591;48.314;11.562;2023-08-06T10:35:27;0.95;;;0.38;;
36585;SDS011;22591;48.314;11.562;2023-08-06T10:37:57;1.98;;;0.38;;
36585;SDS011;22591;48.314;11.562;2023-08-06T10:40:33;1.70;;;0.32;;
36585;SDS011;22591;48.314;11.562;2023-08-06T10:43:03;0.45;;;0.38;;
36585;SDS011;22591;48.314;11.562;2023-08-06T10:45:36;1.13;;;0.40;;
36585;SDS011;22591;48.314;11.562;2023-08-06T10:48:03;1.27;;;0.50;;
36585;SDS011;22591;48.314;11.562;2023-08-06T10:50:29;1.42;;;0.47;;
36585;SDS011;22591;48.314;11.562;2023-08-06T10:52:56;1.00;;;0.55;;
36585;SDS011;22591;48.314;11.562;2023-08-06T10:55:27;5.07;;;0.50;;
36585;SDS011;22591;48.314;11.562;2023-08-06T10:57:54;1.00;;;0.90;;
36585;SDS011;22591;48.314;11.562;2023-08-06T11:00:20;0.60;;;0.60;;
36585;SDS011;22591;48.314;11.562;2023-08-06T11:02:47;0.80;;;0.80;;
36585;SDS011;22591;48.314;11.562;2023-08-06T11:05:16;2.10;;;0.77;;
36585;SDS011;22591;48.314;11.562;2023-08-06T11:07:42;0.65;;;0.65;;
36585;SDS011;22591;48.314;11.562;2023-08-06T11:10:09;1.05;;;0.52;;
36585;SDS011;22591;48.314;11.562;2023-08-06T11:12:36;0.22;;;0.20;;
36585;SDS011;22591;48.314;11.562;2023-08-06T11:15:02;1.08;;;0.22;;
36585;SDS011;22591;48.314;11.562;2023-08-06T11:17:29;0.20;;;0.20;;
36585;SDS011;22591;48.314;11.562;2023-08-06T11:20:00;0.60;;;0.28;;
36585;SDS011;22591;48.314;11.562;2023-08-06T11:22:27;8.27;;;0.50;;
36585;SDS011;22591;48.314;11.562;2023-08-06T11:24:53;0.45;;;0.30;;
36585;SDS011;22591;48.314;11.562;2023-08-06T11:27:19;0.70;;;0.20;;
36585;SDS011;22591;48.314;11.562;2023-08-06T11:29:44;0.15;;;0.15;;
36585;SDS011;22591;48.314;11.562;2023-08-06T11:32:10;0.80;;;0.20;;
36585;SDS011;22591;48.314;11.562;2023-08-06T11:34:37;0.25;;;0.25;;
36585;SDS011;22591;48.314;11.562;2023-08-06T11:37:03;0.20;;;0.20;;
36585;SDS011;22591;48.314;11.562;2023-08-06T11:39:32;0.40;;;0.40;;
36585;SDS011;22591;48.314;11.562;2023-08-06T11:41:59;0.20;;;0.20;;
36585;SDS011;22591;48.314;11.562;2023-08-06T11:44:27;0.17;;;0.17;;
36585;SDS011;22591;48.314;11.562;2023-08-06T11:46:57;0.20;;;0.20;;
36585;SDS011;22591;48.314;11.562;2023-08-06T11:49:41;0.20;;;0.20;;
36585;SDS011;22591;48.314;11.562;2023-08-06T11:52:22;0.70;;;0.20;;
36585;SDS011;22591;48.314;11.562;2023-08-06T11:55:01;0.73;;;0.20;;
36585;SDS011;22591;48.314;11.562;2023-08-06T11:57:29;1.48;;;0.50;;
36585;SDS011;22591;48.314;11.562;2023-08-06T11:59:58;0.30;;;0.30;;
36585;SDS011;22591;48.314;11.562;2023-08-06T12:02:31;1.48;;;0.20;;
36585;SDS011;22591;48.314;11.562;2023-08-06T12:05:03;1.75;;;0.30;;
36585;SDS011;22591;48.314;11.562;2023-08-06T12:07:30;0.10;;;0.10;;
36585;SDS011;22591;48.314;11.562;2023-08-06T12:09:56;0.28;;;0.22;;
36585;SDS011;22591;48.314;11.562;2023-08-06T12:12:23;4.38;;;0.35;;
36585;SDS011;22591;48.314;11.562;2023-08-06T12:14:49;1.08;;;0.30;;
36585;SDS011;22591;48.314;11.562;2023-08-06T12:17:15;0.28;;;0.20;;
36585;SDS011;22591;48.314;11.562;2023-08-06T12:19:40;2.00;;;0.30;;
36585;SDS011;22591;48.314;11.562;2023-08-06T12:22:06;1.90;;;0.20;;
36585;SDS011;22591;48.314;11.562;2023-08-06T12:24:31;2.85;;;0.20;;
36585;SDS011;22591;48.314;11.562;2023-08-06T12:26:57;0.30;;;0.30;;
36585;SDS011;22591;48.314;11.562;2023-08-06T12:29:23;2.85;;;0.50;;
36585;SDS011;22591;48.314;11.562;2023-08-06T12:31:50;0.20;;;0.20;;
36585;SDS011;22591;48.314;11.562;2023-08-06T12:34:15;0.20;;;0.20;;
36585;SDS011;22591;48.314;11.562;2023-08-06T12:36:41;0.10;;;0.10;;
36585;SDS011;22591;48.314;11.562;2023-08-06T12:39:06;0.28;;;0.28;;
36585;SDS011;22591;48.314;11.562;2023-08-06T12:41:32;0.30;;;0.30;;
36585;SDS011;22591;48.314;11.562;2023-08-06T12:43:57;1.25;;;0.20;;
36585;SDS011;22591;48.314;11.562;2023-08-06T12:46:23;0.20;;;0.20;;
36585;SDS011;22591;48.314;11.562;2023-08-06T12:48:48;0.35;;;0.30;;
36585;SDS011;22591;48.314;11.562;2023-08-06T12:51:14;1.52;;;0.30;;
36585;SDS011;22591;48.314;11.562;2023-08-06T12:53:40;2.92;;;0.30;;
36585;SDS011;22591;48.314;11.562;2023-08-06T12:56:05;0.30;;;0.30;;
36585;SDS011;22591;48.314;11.562;2023-08-06T12:58:31;1.55;;;0.20;;
36585;SDS011;22591;48.314;11.562;2023-08-06T13:00:56;0.25;;;0.25;;
36585;SDS011;22591;48.314;11.562;2023-08-06T13:03:22;0.20;;;0.20;;
36585;SDS011;22591;48.314;11.562;2023-08-06T13:05:47;0.20;;;0.20;;
36585;SDS011;22591;48.314;11.562;2023-08-06T13:08:13;0.80;;;0.10;;
36585;SDS011;22591;48.314;11.562;2023-08-06T13:10:38;0.20;;;0.20;;
36585;SDS011;22591;48.314;11.562;2023-08-06T13:13:04;1.83;;;0.22;;
36585;SDS011;22591;48.314;11.562;2023-08-06T13:15:30;2.65;;;0.68;;
36585;SDS011;22591;48.314;11.562;2023-08-06T13:17:55;5.72;;;0.25;;
36585;SDS011;22591;48.314;11.562;2023-08-06T13:20:21;0.22;;;0.20;;
36585;SDS011;22591;48.314;11.562;2023-08-06T13:22:47;0.30;;;0.30;;
36585;SDS011;22591;48.314;11.562;2023-08-06T13:25:15;2.13;;;0.30;;
36585;SDS011;22591;48.314;11.562;2023-08-06T13:27:42;0.20;;;0.20;;
36585;SDS011;22591;48.314;11.562;2023-08-06T13:30:09;0.20;;;0.20;;
36585;SDS011;22591;48.314;11.562;2023-08-06T13:32:35;0.20;;;0.20;;
36585;SDS011;22591;48.314;11.562;2023-08-06T13:35:02;0.17;;;0.17;;
36585;SDS011;22591;48.314;11.562;2023-08-06T13:37:29;0.20;;;0.20;;
36585;SDS011;22591;48.314;11.562;2023-08-06T13:39:54;0.30;;;0.30;;
36585;SDS011;22591;48.314;11.562;2023-08-06T13:42:20;0.40;;;0.30;;
36585;SDS011;22591;48.314;11.562;2023-08-06T13:44:45;1.40;;;0.20;;
36585;SDS011;22591;48.314;11.562;2023-08-06T13:47:11;0.80;;;0.30;;
36585;SDS011;22591;48.314;11.562;2023-08-06T13:49:37;0.25;;;0.25;;
36585;SDS011;22591;48.314;11.562;2023-08-06T13:52:02;0.28;;;0.20;;
36585;SDS011;22591;48.314;11.562;2023-08-06T13:54:28;0.20;;;0.20;;
36585;SDS011;22591;48.314;11.562;2023-08-06T13:56:53;0.32;;;0.32;;
36585;SDS011;22591;48.314;11.562;2023-08-06T13:59:19;0.63;;;0.50;;
36585;SDS011;22591;48.314;11.562;2023-08-06T14:01:45;0.98;;;0.30;;
36585;SDS011;22591;48.314;11.562;2023-08-06T14:04:10;0.30;;;0.30;;
36585;SDS011;22591;48.314;11.562;2023-08-06T14:06:37;0.30;;;0.20;;
36585;SDS011;22591;48.314;11.562;2023-08-06T14:09:02;0.20;;;0.20;;
36585;SDS011;22591;48.314;11.562;2023-08-06T14:11:28;0.30;;;0.30;;
36585;SDS011;22591;48.314;11.562;2023-08-06T14:13:53;1.52;;;0.40;;
36585;SDS011;22591;48.314;11.562;2023-08-06T14:16:19;0.30;;;0.30;;
36585;SDS011;22591;48.314;11.562;2023-08-06T14:18:44;0.55;;;0.28;;
36585;SDS011;22591;48.314;11.562;2023-08-06T14:21:10;0.30;;;0.20;;
36585;SDS011;22591;48.314;11.562;2023-08-06T14:23:36;0.30;;;0.30;;
36585;SDS011;22591;48.314;11.562;2023-08-06T14:26:01;0.22;;;0.22;;
36585;SDS011;22591;48.314;11.562;2023-08-06T14:28:27;1.35;;;0.40;;
36585;SDS011;22591;48.314;11.562;2023-08-06T14:30:52;0.77;;;0.43;;